Lopez Island, Washington
Current Conditions -  °F | °C
As of 2:17 AM on Sunday 25 Jan 2015 (Local Time) from KFHR Reporting Station
Overcast Overcast  
Wind Chill: 49°   Ceiling: 2700
Heat Index: 49°   Visibility: 9mi
Dew Point: 48°   Wind: 3mph
Humidity: 97%   Direction: 130°SE
Pressure: 30.2"   Gusts: NA
Location:  48.51°N, 122.91°W
Report Text: KFHR 251017Z AUTO 13003KT 9SM FEW003 OVC027 09/09 A3020 RMK AO2 T00940089
Loading
Personal Weather Stations






























Interactive Weather Map New forecast layout! Learn more

10-Day Weather Forecast

Advertisements
Track Severe Weather on mobile